SAS53T EKCH-EKVG
Flight info
| Callsign | SAS53T |
|---|---|
| Flight time | 1h 47m |
| Altitude | 36000 |
| Route | GOLG2C GOLGA AMSEV ZOL GUNPA ROBUR |
| Aircraft | B737/M-V/N |
Departure
| Time | 2026-05-08 20:18 |
|---|---|
| Airport | Copenhagen Kastrup Airport (EKCH) |
Arrival
| Time | 2026-05-08 22:06 |
|---|---|
| Airport | Vágar Airport (EKVG) |
| Time | Latitude | Longitude | Altitude | Speed | Heading |
|---|---|---|---|---|---|
| 2026-05-08 19:38 | 55.62736 | 12.64268 | 25 ft | 0 kts | 303° |
| 2026-05-08 20:05 | 55.62736 | 12.64269 | 25 ft | 1 kts | 303° |
| 2026-05-08 20:05 | 55.62728 | 12.64292 | 25 ft | 3 kts | 292° |
| 2026-05-08 20:05 | 55.62723 | 12.64325 | 25 ft | 3 kts | 265° |
| 2026-05-08 20:05 | 55.62728 | 12.64354 | 25 ft | 3 kts | 225° |
| 2026-05-08 20:06 | 55.62737 | 12.64367 | 25 ft | 1 kts | 207° |
| 2026-05-08 20:06 | 55.62740 | 12.64369 | 25 ft | 0 kts | 207° |
| 2026-05-08 20:10 | 55.62735 | 12.64365 | 25 ft | 3 kts | 207° |
| 2026-05-08 20:10 | 55.62711 | 12.64345 | 25 ft | 8 kts | 204° |
| 2026-05-08 20:11 | 55.62593 | 12.64242 | 25 ft | 8 kts | 213° |
| 2026-05-08 20:11 | 55.62542 | 12.64203 | 25 ft | 9 kts | 173° |
| 2026-05-08 20:11 | 55.62511 | 12.64243 | 25 ft | 9 kts | 122° |
| 2026-05-08 20:11 | 55.62476 | 12.64328 | 25 ft | 8 kts | 127° |
| 2026-05-08 20:12 | 55.62441 | 12.64408 | 25 ft | 8 kts | 128° |
| 2026-05-08 20:12 | 55.62408 | 12.64484 | 25 ft | 8 kts | 125° |
| 2026-05-08 20:12 | 55.62380 | 12.64562 | 25 ft | 8 kts | 123° |
| 2026-05-08 20:12 | 55.62347 | 12.64651 | 25 ft | 10 kts | 123° |
| 2026-05-08 20:13 | 55.62305 | 12.64764 | 25 ft | 12 kts | 124° |
| 2026-05-08 20:13 | 55.62254 | 12.64899 | 25 ft | 14 kts | 123° |
| 2026-05-08 20:13 | 55.62199 | 12.65052 | 25 ft | 13 kts | 123° |
| 2026-05-08 20:13 | 55.62129 | 12.65089 | 25 ft | 12 kts | 212° |
| 2026-05-08 20:14 | 55.62052 | 12.64997 | 25 ft | 15 kts | 214° |
| 2026-05-08 20:14 | 55.61956 | 12.64886 | 25 ft | 18 kts | 213° |
| 2026-05-08 20:14 | 55.61842 | 12.64755 | 25 ft | 21 kts | 213° |
| 2026-05-08 20:14 | 55.61718 | 12.64614 | 25 ft | 21 kts | 213° |
| 2026-05-08 20:15 | 55.61596 | 12.64473 | 25 ft | 22 kts | 213° |
| 2026-05-08 20:15 | 55.61469 | 12.64327 | 25 ft | 22 kts | 213° |
| 2026-05-08 20:15 | 55.61339 | 12.64178 | 25 ft | 22 kts | 213° |
| 2026-05-08 20:15 | 55.61208 | 12.64028 | 25 ft | 23 kts | 213° |
| 2026-05-08 20:16 | 55.61075 | 12.63874 | 25 ft | 23 kts | 213° |
| 2026-05-08 20:16 | 55.60940 | 12.63721 | 25 ft | 21 kts | 214° |
| 2026-05-08 20:16 | 55.60840 | 12.63605 | 25 ft | 13 kts | 213° |
| 2026-05-08 20:16 | 55.60764 | 12.63647 | 25 ft | 13 kts | 128° |
| 2026-05-08 20:17 | 55.60711 | 12.63767 | 25 ft | 12 kts | 128° |
| 2026-05-08 20:17 | 55.60697 | 12.63895 | 25 ft | 12 kts | 51° |
| 2026-05-08 20:17 | 55.60772 | 12.64011 | 25 ft | 21 kts | 40° |
| 2026-05-08 20:17 | 55.61036 | 12.64421 | 25 ft | 83 kts | 41° |
| 2026-05-08 20:18 | 55.61619 | 12.65324 | 31 ft | 140 kts | 41° |
| 2026-05-08 20:18 | 55.62402 | 12.66507 | 526 ft | 151 kts | 40° |
| 2026-05-08 20:18 | 55.63178 | 12.67693 | 1351 ft | 148 kts | 42° |
| 2026-05-08 20:18 | 55.63970 | 12.68950 | 2003 ft | 158 kts | 43° |
| 2026-05-08 20:19 | 55.64851 | 12.70356 | 2416 ft | 184 kts | 44° |
| 2026-05-08 20:19 | 55.66030 | 12.71594 | 2727 ft | 216 kts | 19° |
| 2026-05-08 20:19 | 55.67606 | 12.71858 | 3321 ft | 238 kts | 2° |
| 2026-05-08 20:19 | 55.69299 | 12.71599 | 4063 ft | 249 kts | 357° |
| 2026-05-08 20:20 | 55.71051 | 12.71141 | 4865 ft | 258 kts | 356° |
| 2026-05-08 20:20 | 55.72840 | 12.70692 | 5500 ft | 265 kts | 357° |
| 2026-05-08 20:20 | 55.74688 | 12.70267 | 6015 ft | 267 kts | 358° |
| 2026-05-08 20:20 | 55.76529 | 12.69865 | 6843 ft | 270 kts | 358° |
| 2026-05-08 20:21 | 55.78408 | 12.69465 | 7678 ft | 274 kts | 358° |
| 2026-05-08 20:21 | 55.80320 | 12.69042 | 8493 ft | 279 kts | 355° |
| 2026-05-08 20:21 | 55.82160 | 12.67810 | 9389 ft | 291 kts | 333° |
| 2026-05-08 20:21 | 55.83656 | 12.65317 | 10087 ft | 304 kts | 308° |
| 2026-05-08 20:22 | 55.84552 | 12.61912 | 10877 ft | 307 kts | 288° |
| 2026-05-08 20:22 | 55.85074 | 12.58155 | 11473 ft | 318 kts | 286° |
| 2026-05-08 20:22 | 55.85737 | 12.54301 | 11778 ft | 336 kts | 290° |
| 2026-05-08 20:22 | 55.86560 | 12.50325 | 12041 ft | 354 kts | 293° |
| 2026-05-08 20:23 | 55.87496 | 12.46134 | 12419 ft | 367 kts | 293° |
| 2026-05-08 20:23 | 55.88437 | 12.41872 | 12986 ft | 374 kts | 293° |
| 2026-05-08 20:23 | 55.89399 | 12.37513 | 13583 ft | 379 kts | 294° |
| 2026-05-08 20:23 | 55.90523 | 12.33213 | 14171 ft | 384 kts | 300° |
| 2026-05-08 20:24 | 55.91907 | 12.29155 | 14757 ft | 386 kts | 307° |
| 2026-05-08 20:24 | 55.93496 | 12.25254 | 15338 ft | 390 kts | 309° |
| 2026-05-08 20:24 | 55.95117 | 12.21319 | 15898 ft | 395 kts | 309° |
| 2026-05-08 20:24 | 55.96720 | 12.17302 | 16449 ft | 401 kts | 308° |
| 2026-05-08 20:25 | 55.98330 | 12.13205 | 16974 ft | 406 kts | 308° |
| 2026-05-08 20:25 | 55.98861 | 12.11850 | 17141 ft | 407 kts | 308° |
| 2026-05-08 20:25 | 56.03626 | 12.00875 | 18579 ft | 412 kts | 321° |
| 2026-05-08 20:26 | 56.05858 | 11.97610 | 19078 ft | 412 kts | 329° |
| 2026-05-08 20:26 | 56.08274 | 11.94853 | 19608 ft | 411 kts | 335° |
| 2026-05-08 20:26 | 56.10749 | 11.92400 | 20096 ft | 413 kts | 338° |
| 2026-05-08 20:26 | 56.13317 | 11.89916 | 20576 ft | 417 kts | 337° |
| 2026-05-08 20:27 | 56.15831 | 11.87408 | 21040 ft | 421 kts | 336° |
| 2026-05-08 20:27 | 56.17556 | 11.85661 | 21370 ft | 423 kts | 336° |
| 2026-05-08 20:28 | 56.28467 | 11.74484 | 23194 ft | 436 kts | 336° |
| 2026-05-08 20:28 | 56.31055 | 11.71658 | 23582 ft | 442 kts | 331° |
| 2026-05-08 20:28 | 56.33557 | 11.68273 | 23972 ft | 449 kts | 324° |
| 2026-05-08 20:29 | 56.35842 | 11.64473 | 24401 ft | 453 kts | 319° |
| 2026-05-08 20:29 | 56.37996 | 11.60315 | 24829 ft | 456 kts | 315° |
| 2026-05-08 20:29 | 56.40118 | 11.55904 | 25232 ft | 459 kts | 313° |
| 2026-05-08 20:29 | 56.42170 | 11.51571 | 25618 ft | 460 kts | 314° |
| 2026-05-08 20:30 | 56.44260 | 11.47184 | 25996 ft | 462 kts | 314° |
| 2026-05-08 20:30 | 56.46362 | 11.42794 | 26350 ft | 464 kts | 314° |
| 2026-05-08 20:30 | 56.48488 | 11.38359 | 26695 ft | 466 kts | 314° |
| 2026-05-08 20:30 | 56.50607 | 11.33942 | 27048 ft | 467 kts | 314° |
| 2026-05-08 20:31 | 56.52744 | 11.29484 | 27380 ft | 469 kts | 313° |
| 2026-05-08 20:31 | 56.54895 | 11.24994 | 27677 ft | 472 kts | 313° |
| 2026-05-08 20:31 | 56.57050 | 11.20534 | 28006 ft | 473 kts | 314° |
| 2026-05-08 20:31 | 56.59245 | 11.16089 | 28336 ft | 473 kts | 314° |
| 2026-05-08 20:32 | 56.61441 | 11.11600 | 28629 ft | 475 kts | 314° |
| 2026-05-08 20:32 | 56.63626 | 11.07098 | 28899 ft | 477 kts | 313° |
| 2026-05-08 20:32 | 56.65822 | 11.02544 | 29197 ft | 479 kts | 313° |
| 2026-05-08 20:32 | 56.68013 | 10.97984 | 29480 ft | 480 kts | 313° |
| 2026-05-08 20:33 | 56.70213 | 10.93388 | 29733 ft | 482 kts | 313° |
| 2026-05-08 20:33 | 56.72414 | 10.88776 | 30010 ft | 483 kts | 313° |
| 2026-05-08 20:33 | 56.74610 | 10.84166 | 30249 ft | 484 kts | 313° |
| 2026-05-08 20:33 | 56.76828 | 10.79497 | 30488 ft | 486 kts | 313° |
| 2026-05-08 20:34 | 56.79029 | 10.74855 | 30743 ft | 487 kts | 313° |
| 2026-05-08 20:34 | 56.81246 | 10.70168 | 31025 ft | 487 kts | 313° |
| 2026-05-08 20:34 | 56.85672 | 10.60786 | 31662 ft | 485 kts | 313° |
| 2026-05-08 20:35 | 56.87846 | 10.56163 | 31947 ft | 485 kts | 313° |
| 2026-05-08 20:35 | 56.90037 | 10.51494 | 32251 ft | 484 kts | 313° |
| 2026-05-08 20:35 | 56.92260 | 10.46749 | 32544 ft | 484 kts | 313° |
| 2026-05-08 20:35 | 56.94413 | 10.42144 | 32868 ft | 482 kts | 313° |
| 2026-05-08 20:36 | 56.96593 | 10.37470 | 33106 ft | 483 kts | 313° |
| 2026-05-08 20:36 | 56.98764 | 10.32808 | 33342 ft | 483 kts | 313° |
| 2026-05-08 20:36 | 57.00944 | 10.28118 | 33651 ft | 482 kts | 313° |
| 2026-05-08 20:36 | 57.03118 | 10.23431 | 33938 ft | 481 kts | 312° |
| 2026-05-08 20:37 | 57.05291 | 10.18736 | 34145 ft | 482 kts | 312° |
| 2026-05-08 20:37 | 57.07467 | 10.14025 | 34441 ft | 480 kts | 312° |
| 2026-05-08 20:37 | 57.09600 | 10.09399 | 34679 ft | 480 kts | 312° |
| 2026-05-08 20:37 | 57.11793 | 10.04634 | 34927 ft | 480 kts | 312° |
| 2026-05-08 20:38 | 57.13916 | 10.00012 | 35187 ft | 479 kts | 312° |
| 2026-05-08 20:38 | 57.16063 | 9.95329 | 35530 ft | 476 kts | 312° |
| 2026-05-08 20:38 | 57.18192 | 9.90674 | 35802 ft | 475 kts | 312° |
| 2026-05-08 20:38 | 57.20327 | 9.85998 | 35956 ft | 476 kts | 311° |
| 2026-05-08 20:39 | 57.22459 | 9.81320 | 36214 ft | 475 kts | 311° |
| 2026-05-08 20:39 | 57.24581 | 9.76654 | 36464 ft | 474 kts | 311° |
| 2026-05-08 20:39 | 57.26693 | 9.72001 | 36674 ft | 474 kts | 311° |
| 2026-05-08 20:39 | 57.28808 | 9.67331 | 36893 ft | 473 kts | 311° |
| 2026-05-08 20:40 | 57.30919 | 9.62662 | 37077 ft | 473 kts | 311° |
| 2026-05-08 20:40 | 57.32998 | 9.58053 | 37343 ft | 471 kts | 311° |
| 2026-05-08 20:40 | 57.35098 | 9.53391 | 37533 ft | 471 kts | 311° |
| 2026-05-08 20:41 | 57.41348 | 9.39458 | 38111 ft | 469 kts | 311° |
| 2026-05-08 20:41 | 57.43427 | 9.34805 | 38304 ft | 468 kts | 311° |
| 2026-05-08 20:42 | 57.47605 | 9.25452 | 38352 ft | 469 kts | 311° |
| 2026-05-08 20:42 | 57.51779 | 9.16187 | 38363 ft | 467 kts | 311° |
| 2026-05-08 20:43 | 57.55907 | 9.06816 | 38372 ft | 468 kts | 310° |
| 2026-05-08 20:43 | 57.60014 | 8.97425 | 38380 ft | 467 kts | 310° |
| 2026-05-08 20:44 | 57.64124 | 8.88003 | 38388 ft | 468 kts | 310° |
| 2026-05-08 20:44 | 57.68205 | 8.78616 | 38395 ft | 468 kts | 309° |
| 2026-05-08 20:45 | 57.72131 | 8.68890 | 38403 ft | 469 kts | 307° |
| 2026-05-08 20:45 | 57.76026 | 8.59056 | 38409 ft | 470 kts | 307° |
| 2026-05-08 20:46 | 57.83558 | 8.40001 | 38421 ft | 471 kts | 307° |
| 2026-05-08 20:47 | 57.87455 | 8.30091 | 38426 ft | 472 kts | 307° |
| 2026-05-08 20:47 | 57.91385 | 8.20348 | 38431 ft | 472 kts | 308° |
| 2026-05-08 20:48 | 57.95337 | 8.10463 | 38433 ft | 472 kts | 308° |
| 2026-05-08 20:48 | 57.99265 | 8.00511 | 38432 ft | 472 kts | 307° |
| 2026-05-08 20:49 | 58.03163 | 7.90565 | 38433 ft | 472 kts | 307° |
| 2026-05-08 20:49 | 58.07053 | 7.80583 | 38433 ft | 472 kts | 307° |
| 2026-05-08 20:50 | 58.10943 | 7.70556 | 38432 ft | 472 kts | 307° |
| 2026-05-08 20:50 | 58.14826 | 7.60502 | 38431 ft | 472 kts | 307° |
| 2026-05-08 20:51 | 58.18698 | 7.50435 | 38428 ft | 471 kts | 307° |
| 2026-05-08 20:51 | 58.22522 | 7.40449 | 38430 ft | 471 kts | 306° |
| 2026-05-08 20:52 | 58.26372 | 7.30351 | 38427 ft | 471 kts | 306° |
| 2026-05-08 20:52 | 58.30212 | 7.20241 | 38424 ft | 471 kts | 306° |
| 2026-05-08 20:53 | 58.34033 | 7.10136 | 38419 ft | 470 kts | 306° |
| 2026-05-08 20:53 | 58.37843 | 7.00015 | 38413 ft | 470 kts | 306° |
| 2026-05-08 20:54 | 58.41626 | 6.89926 | 38407 ft | 470 kts | 306° |
| 2026-05-08 20:54 | 58.45422 | 6.79758 | 38400 ft | 469 kts | 305° |
| 2026-05-08 20:55 | 58.49197 | 6.69601 | 38391 ft | 468 kts | 305° |
| 2026-05-08 20:55 | 58.52957 | 6.59443 | 38381 ft | 468 kts | 305° |
| 2026-05-08 20:56 | 58.56715 | 6.49247 | 38373 ft | 468 kts | 305° |
| 2026-05-08 20:56 | 58.60463 | 6.39034 | 38365 ft | 468 kts | 305° |
| 2026-05-08 20:57 | 58.64198 | 6.28812 | 38361 ft | 468 kts | 304° |
| 2026-05-08 20:57 | 58.67936 | 6.18539 | 38356 ft | 468 kts | 304° |
| 2026-05-08 20:58 | 58.71677 | 6.08397 | 38353 ft | 468 kts | 305° |
| 2026-05-08 20:58 | 58.75392 | 5.98115 | 38352 ft | 468 kts | 304° |
| 2026-05-08 20:59 | 58.79071 | 5.87800 | 38349 ft | 466 kts | 304° |
| 2026-05-08 20:59 | 58.82738 | 5.77469 | 38349 ft | 467 kts | 304° |
| 2026-05-08 21:00 | 58.86407 | 5.67127 | 38348 ft | 467 kts | 304° |
| 2026-05-08 21:00 | 58.90285 | 5.57089 | 38348 ft | 466 kts | 309° |
| 2026-05-08 21:01 | 58.94419 | 5.47402 | 38348 ft | 466 kts | 309° |
| 2026-05-08 21:01 | 58.98514 | 5.37668 | 38348 ft | 466 kts | 309° |
| 2026-05-08 21:02 | 59.02586 | 5.27878 | 38348 ft | 466 kts | 308° |
| 2026-05-08 21:02 | 59.06637 | 5.18065 | 38348 ft | 466 kts | 308° |
| 2026-05-08 21:03 | 59.10687 | 5.08323 | 38347 ft | 466 kts | 309° |
| 2026-05-08 21:03 | 59.14825 | 4.98525 | 38347 ft | 466 kts | 309° |
| 2026-05-08 21:04 | 59.18888 | 4.88744 | 38347 ft | 467 kts | 308° |
| 2026-05-08 21:04 | 59.22948 | 4.78874 | 38347 ft | 466 kts | 308° |
| 2026-05-08 21:05 | 59.26998 | 4.68963 | 38346 ft | 465 kts | 308° |
| 2026-05-08 21:05 | 59.31029 | 4.59050 | 38346 ft | 466 kts | 308° |
| 2026-05-08 21:06 | 59.35060 | 4.49089 | 38345 ft | 466 kts | 307° |
| 2026-05-08 21:06 | 59.39093 | 4.39079 | 38345 ft | 467 kts | 307° |
| 2026-05-08 21:07 | 59.43105 | 4.29077 | 38344 ft | 468 kts | 307° |
| 2026-05-08 21:07 | 59.47126 | 4.19012 | 38343 ft | 467 kts | 307° |
| 2026-05-08 21:08 | 59.51108 | 4.09000 | 38342 ft | 467 kts | 307° |
| 2026-05-08 21:08 | 59.55113 | 3.98886 | 38341 ft | 467 kts | 307° |
| 2026-05-08 21:09 | 59.59102 | 3.88770 | 38341 ft | 468 kts | 307° |
| 2026-05-08 21:09 | 59.63094 | 3.78601 | 38341 ft | 468 kts | 306° |
| 2026-05-08 21:10 | 59.67076 | 3.68414 | 38340 ft | 468 kts | 306° |
| 2026-05-08 21:10 | 59.71048 | 3.58207 | 38340 ft | 467 kts | 306° |
| 2026-05-08 21:11 | 59.75003 | 3.48002 | 38340 ft | 467 kts | 306° |
| 2026-05-08 21:11 | 59.78931 | 3.37818 | 38340 ft | 467 kts | 306° |
| 2026-05-08 21:12 | 59.82864 | 3.27580 | 38341 ft | 466 kts | 306° |
| 2026-05-08 21:12 | 59.86786 | 3.17324 | 38341 ft | 466 kts | 306° |
| 2026-05-08 21:13 | 59.90697 | 3.07055 | 38342 ft | 465 kts | 306° |
| 2026-05-08 21:13 | 59.94598 | 2.96764 | 38342 ft | 464 kts | 306° |
| 2026-05-08 21:14 | 59.98484 | 2.86467 | 38343 ft | 464 kts | 306° |
| 2026-05-08 21:14 | 60.02355 | 2.76166 | 38343 ft | 463 kts | 306° |
| 2026-05-08 21:15 | 60.06221 | 2.65834 | 38344 ft | 463 kts | 306° |
| 2026-05-08 21:15 | 60.10070 | 2.55498 | 38344 ft | 462 kts | 306° |
| 2026-05-08 21:16 | 60.11339 | 2.52081 | 38344 ft | 462 kts | 306° |
| 2026-05-08 21:16 | 60.17726 | 2.34805 | 38345 ft | 461 kts | 306° |
| 2026-05-08 21:17 | 60.18995 | 2.31358 | 38345 ft | 461 kts | 306° |
| 2026-05-08 21:17 | 60.25503 | 2.13595 | 38345 ft | 461 kts | 305° |
| 2026-05-08 21:18 | 60.29290 | 2.03198 | 38344 ft | 460 kts | 305° |
| 2026-05-08 21:18 | 60.33081 | 1.92742 | 38336 ft | 461 kts | 305° |
| 2026-05-08 21:19 | 60.36855 | 1.82287 | 38327 ft | 461 kts | 305° |
| 2026-05-08 21:19 | 60.39993 | 1.73559 | 38319 ft | 461 kts | 305° |
| 2026-05-08 21:20 | 60.44371 | 1.61324 | 38319 ft | 461 kts | 305° |
| 2026-05-08 21:20 | 60.48124 | 1.50785 | 38319 ft | 462 kts | 304° |
| 2026-05-08 21:21 | 60.51270 | 1.41915 | 38320 ft | 462 kts | 304° |
| 2026-05-08 21:21 | 60.54993 | 1.31372 | 38324 ft | 462 kts | 304° |
| 2026-05-08 21:22 | 60.58741 | 1.20711 | 38314 ft | 463 kts | 304° |
| 2026-05-08 21:22 | 60.62475 | 1.10039 | 38310 ft | 463 kts | 304° |
| 2026-05-08 21:23 | 60.66197 | 0.99351 | 38308 ft | 463 kts | 304° |
| 2026-05-08 21:24 | 60.73640 | 0.77840 | 38304 ft | 464 kts | 304° |
| 2026-05-08 21:24 | 60.77348 | 0.67046 | 38301 ft | 464 kts | 304° |
| 2026-05-08 21:25 | 60.81028 | 0.56285 | 38299 ft | 464 kts | 303° |
| 2026-05-08 21:25 | 60.84774 | 0.45516 | 38296 ft | 464 kts | 304° |
| 2026-05-08 21:26 | 60.88445 | 0.34668 | 38294 ft | 464 kts | 303° |
| 2026-05-08 21:26 | 60.92113 | 0.23703 | 38291 ft | 464 kts | 303° |
| 2026-05-08 21:27 | 60.95748 | 0.12786 | 38288 ft | 464 kts | 303° |
| 2026-05-08 21:27 | 60.99103 | 0.01429 | 38286 ft | 461 kts | 292° |
| 2026-05-08 21:28 | 61.01561 | -0.10791 | 38281 ft | 464 kts | 288° |
| 2026-05-08 21:28 | 61.03712 | -0.23404 | 38277 ft | 464 kts | 285° |
| 2026-05-08 21:29 | 61.05708 | -0.35956 | 38284 ft | 463 kts | 285° |
| 2026-05-08 21:29 | 61.07697 | -0.48675 | 38281 ft | 463 kts | 285° |
| 2026-05-08 21:30 | 61.09647 | -0.61299 | 38278 ft | 462 kts | 284° |
| 2026-05-08 21:30 | 61.11658 | -0.73965 | 38274 ft | 463 kts | 286° |
| 2026-05-08 21:31 | 61.13720 | -0.86557 | 38270 ft | 463 kts | 285° |
| 2026-05-08 21:31 | 61.15714 | -0.99167 | 38266 ft | 462 kts | 285° |
| 2026-05-08 21:32 | 61.17680 | -1.11834 | 38262 ft | 462 kts | 284° |
| 2026-05-08 21:32 | 61.19625 | -1.24528 | 38258 ft | 462 kts | 284° |
| 2026-05-08 21:33 | 61.21559 | -1.37264 | 38241 ft | 462 kts | 284° |
| 2026-05-08 21:33 | 61.23470 | -1.49956 | 38212 ft | 461 kts | 284° |
| 2026-05-08 21:34 | 61.25371 | -1.62686 | 38200 ft | 461 kts | 284° |
| 2026-05-08 21:34 | 61.27261 | -1.75436 | 38195 ft | 462 kts | 284° |
| 2026-05-08 21:35 | 61.29125 | -1.88107 | 38189 ft | 461 kts | 283° |
| 2026-05-08 21:35 | 61.31003 | -2.00964 | 38184 ft | 461 kts | 283° |
| 2026-05-08 21:36 | 61.32855 | -2.13747 | 38176 ft | 462 kts | 283° |
| 2026-05-08 21:36 | 61.33780 | -2.20172 | 38044 ft | 464 kts | 283° |
| 2026-05-08 21:36 | 61.34693 | -2.26533 | 37712 ft | 463 kts | 283° |
| 2026-05-08 21:36 | 61.35618 | -2.33007 | 37131 ft | 461 kts | 283° |
| 2026-05-08 21:37 | 61.36522 | -2.39358 | 36574 ft | 460 kts | 283° |
| 2026-05-08 21:37 | 61.37435 | -2.45788 | 36113 ft | 456 kts | 283° |
| 2026-05-08 21:37 | 61.38328 | -2.52112 | 35658 ft | 452 kts | 283° |
| 2026-05-08 21:37 | 61.39198 | -2.58288 | 35216 ft | 449 kts | 283° |
| 2026-05-08 21:38 | 61.40076 | -2.64551 | 34770 ft | 446 kts | 283° |
| 2026-05-08 21:38 | 61.40937 | -2.70713 | 34333 ft | 442 kts | 283° |
| 2026-05-08 21:38 | 61.41796 | -2.76885 | 33897 ft | 439 kts | 282° |
| 2026-05-08 21:38 | 61.42639 | -2.82966 | 33470 ft | 436 kts | 282° |
| 2026-05-08 21:39 | 61.43478 | -2.89044 | 33028 ft | 434 kts | 282° |
| 2026-05-08 21:39 | 61.44310 | -2.95086 | 32500 ft | 434 kts | 282° |
| 2026-05-08 21:39 | 61.45145 | -3.01178 | 32039 ft | 432 kts | 282° |
| 2026-05-08 21:39 | 61.45964 | -3.07178 | 31610 ft | 429 kts | 282° |
| 2026-05-08 21:40 | 61.46777 | -3.13156 | 31196 ft | 426 kts | 282° |
| 2026-05-08 21:40 | 61.47587 | -3.19124 | 30759 ft | 424 kts | 282° |
| 2026-05-08 21:40 | 61.48379 | -3.24991 | 30360 ft | 422 kts | 282° |
| 2026-05-08 21:41 | 61.49953 | -3.36716 | 29564 ft | 417 kts | 282° |
| 2026-05-08 21:41 | 61.50736 | -3.42579 | 29178 ft | 415 kts | 281° |
| 2026-05-08 21:41 | 61.51508 | -3.48377 | 28770 ft | 413 kts | 281° |
| 2026-05-08 21:41 | 61.52276 | -3.54170 | 28391 ft | 411 kts | 281° |
| 2026-05-08 21:42 | 61.53031 | -3.59890 | 28022 ft | 409 kts | 281° |
| 2026-05-08 21:42 | 61.53787 | -3.65632 | 27639 ft | 407 kts | 281° |
| 2026-05-08 21:42 | 61.54536 | -3.71345 | 27262 ft | 404 kts | 281° |
| 2026-05-08 21:42 | 61.55276 | -3.77011 | 26884 ft | 402 kts | 281° |
| 2026-05-08 21:43 | 61.56012 | -3.82661 | 26494 ft | 401 kts | 281° |
| 2026-05-08 21:43 | 61.56735 | -3.88240 | 26126 ft | 399 kts | 281° |
| 2026-05-08 21:43 | 61.57458 | -3.93835 | 25755 ft | 397 kts | 281° |
| 2026-05-08 21:43 | 61.58179 | -3.99436 | 25379 ft | 395 kts | 281° |
| 2026-05-08 21:44 | 61.58890 | -4.04974 | 25023 ft | 393 kts | 281° |
| 2026-05-08 21:44 | 61.59599 | -4.10522 | 24647 ft | 391 kts | 281° |
| 2026-05-08 21:44 | 61.60299 | -4.16016 | 24270 ft | 390 kts | 281° |
| 2026-05-08 21:44 | 61.60994 | -4.21493 | 23909 ft | 388 kts | 281° |
| 2026-05-08 21:45 | 61.61688 | -4.26985 | 23551 ft | 386 kts | 281° |
| 2026-05-08 21:45 | 61.62371 | -4.32401 | 23198 ft | 384 kts | 281° |
| 2026-05-08 21:45 | 61.63048 | -4.37797 | 22816 ft | 383 kts | 281° |
| 2026-05-08 21:45 | 61.63728 | -4.43230 | 22465 ft | 381 kts | 281° |
| 2026-05-08 21:46 | 61.64398 | -4.48610 | 22118 ft | 379 kts | 280° |
| 2026-05-08 21:46 | 61.65061 | -4.53945 | 21770 ft | 377 kts | 280° |
| 2026-05-08 21:46 | 61.65723 | -4.59292 | 21221 ft | 380 kts | 280° |
| 2026-05-08 21:46 | 61.66384 | -4.64654 | 20461 ft | 376 kts | 280° |
| 2026-05-08 21:47 | 61.67656 | -4.75018 | 18982 ft | 368 kts | 280° |
| 2026-05-08 21:47 | 61.68291 | -4.80228 | 18229 ft | 364 kts | 279° |
| 2026-05-08 21:47 | 61.68919 | -4.85392 | 17474 ft | 361 kts | 279° |
| 2026-05-08 21:48 | 61.69535 | -4.90471 | 16726 ft | 357 kts | 279° |
| 2026-05-08 21:48 | 61.70147 | -4.95544 | 15972 ft | 354 kts | 279° |
| 2026-05-08 21:48 | 61.70743 | -5.00494 | 15229 ft | 351 kts | 279° |
| 2026-05-08 21:48 | 61.71345 | -5.05519 | 14467 ft | 347 kts | 279° |
| 2026-05-08 21:49 | 61.71933 | -5.10433 | 13725 ft | 344 kts | 279° |
| 2026-05-08 21:49 | 61.72503 | -5.15223 | 13357 ft | 336 kts | 278° |
| 2026-05-08 21:49 | 61.73067 | -5.19965 | 13107 ft | 333 kts | 278° |
| 2026-05-08 21:49 | 61.73626 | -5.24695 | 12855 ft | 329 kts | 278° |
| 2026-05-08 21:50 | 61.74175 | -5.29345 | 12605 ft | 326 kts | 278° |
| 2026-05-08 21:50 | 61.74719 | -5.33969 | 12354 ft | 323 kts | 278° |
| 2026-05-08 21:50 | 61.75256 | -5.38549 | 12104 ft | 321 kts | 278° |
| 2026-05-08 21:50 | 61.75792 | -5.43137 | 11849 ft | 320 kts | 278° |
| 2026-05-08 21:51 | 61.76323 | -5.47697 | 11601 ft | 319 kts | 278° |
| 2026-05-08 21:51 | 61.76849 | -5.52225 | 11351 ft | 318 kts | 278° |
| 2026-05-08 21:51 | 61.77371 | -5.56737 | 11101 ft | 316 kts | 278° |
| 2026-05-08 21:51 | 61.77895 | -5.61277 | 10849 ft | 316 kts | 278° |
| 2026-05-08 21:52 | 61.78062 | -5.62732 | 10768 ft | 315 kts | 278° |
| 2026-05-08 21:52 | 61.79450 | -5.74842 | 10092 ft | 312 kts | 277° |
| 2026-05-08 21:52 | 61.79959 | -5.79311 | 9840 ft | 311 kts | 277° |
| 2026-05-08 21:53 | 61.80459 | -5.83715 | 9589 ft | 307 kts | 277° |
| 2026-05-08 21:53 | 61.80948 | -5.88035 | 9339 ft | 302 kts | 277° |
| 2026-05-08 21:53 | 61.81449 | -5.92324 | 9083 ft | 296 kts | 278° |
| 2026-05-08 21:53 | 61.81955 | -5.96424 | 8958 ft | 275 kts | 277° |
| 2026-05-08 21:54 | 61.82401 | -6.00207 | 8830 ft | 257 kts | 276° |
| 2026-05-08 21:54 | 61.82809 | -6.03787 | 8728 ft | 238 kts | 275° |
| 2026-05-08 21:54 | 61.83169 | -6.07006 | 8614 ft | 218 kts | 274° |
| 2026-05-08 21:54 | 61.83511 | -6.10096 | 8378 ft | 214 kts | 273° |
| 2026-05-08 21:55 | 61.83845 | -6.13149 | 8127 ft | 212 kts | 273° |
| 2026-05-08 21:55 | 61.84174 | -6.16169 | 7877 ft | 211 kts | 273° |
| 2026-05-08 21:55 | 61.84503 | -6.19208 | 7625 ft | 210 kts | 272° |
| 2026-05-08 21:56 | 61.85150 | -6.25205 | 7125 ft | 208 kts | 272° |
| 2026-05-08 21:56 | 61.85470 | -6.28186 | 6874 ft | 207 kts | 272° |
| 2026-05-08 21:56 | 61.85788 | -6.31151 | 6624 ft | 206 kts | 272° |
| 2026-05-08 21:56 | 61.86106 | -6.34121 | 6372 ft | 206 kts | 272° |
| 2026-05-08 21:57 | 61.86422 | -6.37074 | 6122 ft | 205 kts | 271° |
| 2026-05-08 21:57 | 61.86733 | -6.39986 | 5874 ft | 204 kts | 271° |
| 2026-05-08 21:57 | 61.87045 | -6.42909 | 5624 ft | 204 kts | 271° |
| 2026-05-08 21:57 | 61.87362 | -6.45874 | 5370 ft | 203 kts | 271° |
| 2026-05-08 21:58 | 61.87671 | -6.48756 | 5123 ft | 204 kts | 272° |
| 2026-05-08 21:58 | 61.88020 | -6.51668 | 4973 ft | 204 kts | 276° |
| 2026-05-08 21:58 | 61.88446 | -6.54571 | 4967 ft | 206 kts | 280° |
| 2026-05-08 21:58 | 61.89031 | -6.57343 | 4971 ft | 212 kts | 288° |
| 2026-05-08 21:59 | 61.89722 | -6.60131 | 4974 ft | 213 kts | 289° |
| 2026-05-08 21:59 | 61.90405 | -6.62906 | 4974 ft | 212 kts | 289° |
| 2026-05-08 21:59 | 61.91089 | -6.65701 | 4974 ft | 212 kts | 289° |
| 2026-05-08 21:59 | 61.91765 | -6.68470 | 4974 ft | 212 kts | 289° |
| 2026-05-08 22:00 | 61.92448 | -6.71268 | 4974 ft | 212 kts | 289° |
| 2026-05-08 22:00 | 61.93126 | -6.74044 | 4895 ft | 213 kts | 289° |
| 2026-05-08 22:00 | 61.93818 | -6.76872 | 4634 ft | 216 kts | 290° |
| 2026-05-08 22:00 | 61.94509 | -6.79698 | 4387 ft | 215 kts | 290° |
| 2026-05-08 22:01 | 61.95189 | -6.82472 | 4217 ft | 210 kts | 290° |
| 2026-05-08 22:01 | 61.95856 | -6.85192 | 4150 ft | 207 kts | 290° |
| 2026-05-08 22:01 | 61.96524 | -6.87917 | 4099 ft | 208 kts | 290° |
| 2026-05-08 22:01 | 61.97204 | -6.90688 | 4046 ft | 209 kts | 290° |
| 2026-05-08 22:02 | 61.97879 | -6.93431 | 3998 ft | 212 kts | 290° |
| 2026-05-08 22:02 | 61.98554 | -6.96177 | 3884 ft | 212 kts | 290° |
| 2026-05-08 22:02 | 61.99254 | -6.99023 | 3568 ft | 216 kts | 291° |
| 2026-05-08 22:02 | 61.99952 | -7.01856 | 3224 ft | 217 kts | 291° |
| 2026-05-08 22:03 | 62.00648 | -7.04679 | 2886 ft | 214 kts | 291° |
| 2026-05-08 22:03 | 62.01334 | -7.07458 | 2582 ft | 205 kts | 291° |
| 2026-05-08 22:03 | 62.01976 | -7.10056 | 2249 ft | 198 kts | 291° |
| 2026-05-08 22:03 | 62.02609 | -7.12617 | 1942 ft | 190 kts | 291° |
| 2026-05-08 22:04 | 62.03208 | -7.15043 | 1665 ft | 180 kts | 292° |
| 2026-05-08 22:04 | 62.03783 | -7.17365 | 1357 ft | 175 kts | 292° |
| 2026-05-08 22:04 | 62.04342 | -7.19624 | 993 ft | 171 kts | 294° |
| 2026-05-08 22:04 | 62.04917 | -7.21795 | 748 ft | 165 kts | 294° |
| 2026-05-08 22:05 | 62.05437 | -7.23956 | 567 ft | 163 kts | 293° |
| 2026-05-08 22:05 | 62.05791 | -7.25380 | 427 ft | 165 kts | 295° |
| 2026-05-08 22:05 | 62.06317 | -7.27519 | 289 ft | 151 kts | 297° |
| 2026-05-08 22:05 | 62.06687 | -7.29007 | 288 ft | 61 kts | 295° |
| 2026-05-08 22:06 | 62.06736 | -7.29226 | 288 ft | 0 kts | 294° |
| 2026-05-08 22:06 | 62.06736 | -7.29233 | 288 ft | 1 kts | 276° |
| 2026-05-08 22:06 | 62.06735 | -7.29242 | 288 ft | 1 kts | 245° |
| 2026-05-08 22:06 | 62.06731 | -7.29247 | 288 ft | 1 kts | 196° |
| 2026-05-08 22:07 | 62.06726 | -7.29243 | 288 ft | 1 kts | 146° |
| 2026-05-08 22:07 | 62.06724 | -7.29233 | 288 ft | 2 kts | 108° |
| 2026-05-08 22:07 | 62.06716 | -7.29167 | 288 ft | 6 kts | 106° |
| 2026-05-08 22:07 | 62.06700 | -7.29072 | 288 ft | 9 kts | 114° |
| 2026-05-08 22:08 | 62.06663 | -7.28904 | 288 ft | 16 kts | 115° |
| 2026-05-08 22:08 | 62.06604 | -7.28670 | 288 ft | 18 kts | 118° |
| 2026-05-08 22:08 | 62.06546 | -7.28439 | 288 ft | 17 kts | 116° |
| 2026-05-08 22:08 | 62.06501 | -7.28262 | 288 ft | 12 kts | 118° |
| 2026-05-08 22:09 | 62.06491 | -7.28157 | 288 ft | 7 kts | 70° |
| 2026-05-08 22:09 | 62.06535 | -7.28088 | 288 ft | 9 kts | 19° |
| 2026-05-08 22:09 | 62.06580 | -7.28062 | 288 ft | 4 kts | 8° |
| 2026-05-08 22:09 | 62.06608 | -7.28054 | 288 ft | 4 kts | 358° |
| 2026-05-08 22:10 | 62.06635 | -7.28060 | 288 ft | 4 kts | 351° |
| 2026-05-08 22:10 | 62.06660 | -7.28071 | 288 ft | 4 kts | 348° |
| 2026-05-08 22:10 | 62.06684 | -7.28060 | 288 ft | 4 kts | 27° |
| 2026-05-08 22:10 | 62.06706 | -7.28038 | 288 ft | 3 kts | 15° |
| 2026-05-08 22:11 | 62.06716 | -7.28028 | 288 ft | 1 kts | 48° |
| 2026-05-08 22:11 | 62.06717 | -7.28016 | 288 ft | 0 kts | 81° |